sensor_id;sensor_type;location;lat;lon;timestamp;P1;durP1;ratioP1;P2;durP2;ratioP2
62554;SDS011;48610;52.144;8.624;2023-11-21T00:01:19;16.77;;;7.25;;
62554;SDS011;48610;52.144;8.624;2023-11-21T00:04:20;10.52;;;6.40;;
62554;SDS011;48610;52.144;8.624;2023-11-21T00:07:21;10.73;;;6.97;;
62554;SDS011;48610;52.144;8.624;2023-11-21T00:10:22;15.90;;;7.28;;
62554;SDS011;48610;52.144;8.624;2023-11-21T00:13:22;15.45;;;8.60;;
62554;SDS011;48610;52.144;8.624;2023-11-21T00:16:23;14.70;;;7.85;;
62554;SDS011;48610;52.144;8.624;2023-11-21T00:19:25;16.13;;;8.88;;
62554;SDS011;48610;52.144;8.624;2023-11-21T00:22:25;14.55;;;8.23;;
62554;SDS011;48610;52.144;8.624;2023-11-21T00:25:26;20.10;;;9.10;;
62554;SDS011;48610;52.144;8.624;2023-11-21T00:28:27;21.60;;;8.98;;
62554;SDS011;48610;52.144;8.624;2023-11-21T00:31:27;21.90;;;9.38;;
62554;SDS011;48610;52.144;8.624;2023-11-21T00:34:28;23.52;;;9.85;;
62554;SDS011;48610;52.144;8.624;2023-11-21T00:37:28;18.55;;;9.48;;
62554;SDS011;48610;52.144;8.624;2023-11-21T00:40:29;21.27;;;9.23;;
62554;SDS011;48610;52.144;8.624;2023-11-21T00:43:29;28.10;;;10.43;;
62554;SDS011;48610;52.144;8.624;2023-11-21T00:46:31;23.60;;;9.68;;
62554;SDS011;48610;52.144;8.624;2023-11-21T00:49:32;26.45;;;9.88;;
62554;SDS011;48610;52.144;8.624;2023-11-21T00:52:32;20.52;;;9.63;;
62554;SDS011;48610;52.144;8.624;2023-11-21T00:55:33;22.30;;;9.13;;
62554;SDS011;48610;52.144;8.624;2023-11-21T00:58:34;18.67;;;7.90;;
62554;SDS011;48610;52.144;8.624;2023-11-21T01:01:35;17.08;;;8.65;;
62554;SDS011;48610;52.144;8.624;2023-11-21T01:04:37;19.95;;;8.23;;
62554;SDS011;48610;52.144;8.624;2023-11-21T01:07:38;14.57;;;8.23;;
62554;SDS011;48610;52.144;8.624;2023-11-21T01:10:39;20.88;;;8.35;;
62554;SDS011;48610;52.144;8.624;2023-11-21T01:13:39;14.55;;;7.97;;
62554;SDS011;48610;52.144;8.624;2023-11-21T01:16:40;18.77;;;8.57;;
62554;SDS011;48610;52.144;8.624;2023-11-21T01:19:41;16.88;;;9.35;;
62554;SDS011;48610;52.144;8.624;2023-11-21T01:22:41;28.92;;;9.38;;
62554;SDS011;48610;52.144;8.624;2023-11-21T01:25:43;21.58;;;9.35;;
62554;SDS011;48610;52.144;8.624;2023-11-21T01:28:43;21.42;;;9.25;;
62554;SDS011;48610;52.144;8.624;2023-11-21T01:31:44;27.45;;;9.90;;
62554;SDS011;48610;52.144;8.624;2023-11-21T01:34:44;33.72;;;9.55;;
62554;SDS011;48610;52.144;8.624;2023-11-21T01:37:45;26.33;;;11.18;;
62554;SDS011;48610;52.144;8.624;2023-11-21T01:40:45;28.15;;;10.30;;
62554;SDS011;48610;52.144;8.624;2023-11-21T01:43:46;20.20;;;9.73;;
62554;SDS011;48610;52.144;8.624;2023-11-21T01:46:46;28.33;;;10.95;;
62554;SDS011;48610;52.144;8.624;2023-11-21T01:49:48;21.88;;;10.73;;
62554;SDS011;48610;52.144;8.624;2023-11-21T01:52:48;17.75;;;9.98;;
62554;SDS011;48610;52.144;8.624;2023-11-21T01:55:49;18.02;;;8.68;;
62554;SDS011;48610;52.144;8.624;2023-11-21T01:58:49;15.00;;;8.77;;
62554;SDS011;48610;52.144;8.624;2023-11-21T02:01:51;20.20;;;9.68;;
62554;SDS011;48610;52.144;8.624;2023-11-21T02:04:51;21.63;;;9.77;;
62554;SDS011;48610;52.144;8.624;2023-11-21T02:07:52;21.65;;;10.35;;
62554;SDS011;48610;52.144;8.624;2023-11-21T02:10:52;19.80;;;10.93;;
62554;SDS011;48610;52.144;8.624;2023-11-21T02:13:53;25.85;;;11.57;;
62554;SDS011;48610;52.144;8.624;2023-11-21T02:16:54;26.08;;;10.82;;
62554;SDS011;48610;52.144;8.624;2023-11-21T02:19:57;24.27;;;11.15;;
62554;SDS011;48610;52.144;8.624;2023-11-21T02:22:57;20.58;;;11.07;;
62554;SDS011;48610;52.144;8.624;2023-11-21T02:25:58;20.33;;;9.88;;
62554;SDS011;48610;52.144;8.624;2023-11-21T02:28:59;23.00;;;10.52;;
62554;SDS011;48610;52.144;8.624;2023-11-21T02:32:00;26.35;;;11.32;;
62554;SDS011;48610;52.144;8.624;2023-11-21T02:35:01;21.77;;;10.45;;
62554;SDS011;48610;52.144;8.624;2023-11-21T02:38:02;21.00;;;10.23;;
62554;SDS011;48610;52.144;8.624;2023-11-21T02:41:03;29.63;;;10.82;;
62554;SDS011;48610;52.144;8.624;2023-11-21T02:44:04;27.45;;;12.00;;
62554;SDS011;48610;52.144;8.624;2023-11-21T02:47:06;41.63;;;15.80;;
62554;SDS011;48610;52.144;8.624;2023-11-21T02:50:07;40.28;;;13.73;;
62554;SDS011;48610;52.144;8.624;2023-11-21T02:53:09;24.27;;;11.52;;
62554;SDS011;48610;52.144;8.624;2023-11-21T02:56:10;22.98;;;11.40;;
62554;SDS011;48610;52.144;8.624;2023-11-21T02:59:11;31.63;;;11.68;;
62554;SDS011;48610;52.144;8.624;2023-11-21T03:02:12;29.67;;;10.98;;
62554;SDS011;48610;52.144;8.624;2023-11-21T03:05:12;25.60;;;10.88;;
62554;SDS011;48610;52.144;8.624;2023-11-21T03:08:13;27.73;;;11.32;;
62554;SDS011;48610;52.144;8.624;2023-11-21T03:11:13;37.38;;;11.05;;
62554;SDS011;48610;52.144;8.624;2023-11-21T03:14:14;27.38;;;13.30;;
62554;SDS011;48610;52.144;8.624;2023-11-21T03:17:15;24.85;;;10.68;;
62554;SDS011;48610;52.144;8.624;2023-11-21T03:20:15;21.90;;;10.77;;
62554;SDS011;48610;52.144;8.624;2023-11-21T03:23:16;25.00;;;10.82;;
62554;SDS011;48610;52.144;8.624;2023-11-21T03:26:17;29.60;;;10.68;;
62554;SDS011;48610;52.144;8.624;2023-11-21T03:29:17;31.98;;;11.80;;
62554;SDS011;48610;52.144;8.624;2023-11-21T03:32:18;28.58;;;11.43;;
62554;SDS011;48610;52.144;8.624;2023-11-21T03:35:19;40.92;;;16.65;;
62554;SDS011;48610;52.144;8.624;2023-11-21T03:38:21;38.70;;;13.50;;
62554;SDS011;48610;52.144;8.624;2023-11-21T03:41:21;57.75;;;19.45;;
62554;SDS011;48610;52.144;8.624;2023-11-21T03:44:22;39.30;;;14.73;;
62554;SDS011;48610;52.144;8.624;2023-11-21T03:47:22;46.30;;;18.85;;
62554;SDS011;48610;52.144;8.624;2023-11-21T03:50:23;41.85;;;13.73;;
62554;SDS011;48610;52.144;8.624;2023-11-21T03:53:23;42.80;;;13.52;;
62554;SDS011;48610;52.144;8.624;2023-11-21T03:56:24;45.17;;;15.07;;
62554;SDS011;48610;52.144;8.624;2023-11-21T03:59:25;35.13;;;12.27;;
62554;SDS011;48610;52.144;8.624;2023-11-21T04:02:25;38.97;;;12.35;;
62554;SDS011;48610;52.144;8.624;2023-11-21T04:05:27;35.05;;;12.27;;
62554;SDS011;48610;52.144;8.624;2023-11-21T04:08:28;33.20;;;12.00;;
62554;SDS011;48610;52.144;8.624;2023-11-21T04:11:28;42.67;;;12.65;;
62554;SDS011;48610;52.144;8.624;2023-11-21T04:14:29;43.40;;;12.65;;
62554;SDS011;48610;52.144;8.624;2023-11-21T04:17:30;33.88;;;11.82;;
62554;SDS011;48610;52.144;8.624;2023-11-21T04:20:31;30.38;;;11.35;;
62554;SDS011;48610;52.144;8.624;2023-11-21T04:23:32;29.15;;;12.20;;
62554;SDS011;48610;52.144;8.624;2023-11-21T04:26:33;38.25;;;14.40;;
62554;SDS011;48610;52.144;8.624;2023-11-21T04:29:33;33.72;;;12.50;;
62554;SDS011;48610;52.144;8.624;2023-11-21T04:32:35;32.70;;;12.38;;
62554;SDS011;48610;52.144;8.624;2023-11-21T04:35:35;32.38;;;11.95;;
62554;SDS011;48610;52.144;8.624;2023-11-21T04:38:36;43.22;;;12.20;;
62554;SDS011;48610;52.144;8.624;2023-11-21T04:41:36;36.67;;;12.05;;
62554;SDS011;48610;52.144;8.624;2023-11-21T04:44:39;45.65;;;17.00;;
62554;SDS011;48610;52.144;8.624;2023-11-21T04:47:41;41.35;;;16.00;;
62554;SDS011;48610;52.144;8.624;2023-11-21T04:50:41;39.28;;;13.05;;
62554;SDS011;48610;52.144;8.624;2023-11-21T04:53:42;35.05;;;11.10;;
62554;SDS011;48610;52.144;8.624;2023-11-21T04:56:42;27.30;;;11.13;;
62554;SDS011;48610;52.144;8.624;2023-11-21T04:59:43;29.08;;;10.10;;
62554;SDS011;48610;52.144;8.624;2023-11-21T05:02:45;25.73;;;9.95;;
62554;SDS011;48610;52.144;8.624;2023-11-21T05:05:45;28.75;;;10.40;;
62554;SDS011;48610;52.144;8.624;2023-11-21T05:08:46;29.13;;;11.10;;
62554;SDS011;48610;52.144;8.624;2023-11-21T05:11:47;37.40;;;12.00;;
62554;SDS011;48610;52.144;8.624;2023-11-21T05:14:48;27.23;;;11.65;;
62554;SDS011;48610;52.144;8.624;2023-11-21T05:17:49;33.65;;;11.70;;
62554;SDS011;48610;52.144;8.624;2023-11-21T05:20:50;33.47;;;13.07;;
62554;SDS011;48610;52.144;8.624;2023-11-21T05:23:50;47.17;;;17.77;;
62554;SDS011;48610;52.144;8.624;2023-11-21T05:26:51;54.75;;;20.33;;
62554;SDS011;48610;52.144;8.624;2023-11-21T05:29:51;41.03;;;15.57;;
62554;SDS011;48610;52.144;8.624;2023-11-21T05:32:52;32.80;;;11.43;;
62554;SDS011;48610;52.144;8.624;2023-11-21T05:35:53;25.00;;;11.52;;
62554;SDS011;48610;52.144;8.624;2023-11-21T05:38:54;36.97;;;11.90;;
62554;SDS011;48610;52.144;8.624;2023-11-21T05:41:54;30.17;;;11.88;;
62554;SDS011;48610;52.144;8.624;2023-11-21T05:44:55;24.40;;;10.38;;
62554;SDS011;48610;52.144;8.624;2023-11-21T05:47:59;29.17;;;9.65;;
62554;SDS011;48610;52.144;8.624;2023-11-21T05:50:59;31.88;;;10.75;;
62554;SDS011;48610;52.144;8.624;2023-11-21T05:54:02;24.13;;;10.32;;
62554;SDS011;48610;52.144;8.624;2023-11-21T05:57:03;50.70;;;21.27;;
62554;SDS011;48610;52.144;8.624;2023-11-21T06:03:11;24.77;;;11.15;;
62554;SDS011;48610;52.144;8.624;2023-11-21T06:06:12;32.03;;;11.95;;
62554;SDS011;48610;52.144;8.624;2023-11-21T06:09:13;24.40;;;11.02;;
62554;SDS011;48610;52.144;8.624;2023-11-21T06:12:13;24.38;;;10.35;;
62554;SDS011;48610;52.144;8.624;2023-11-21T06:15:14;27.35;;;11.63;;
62554;SDS011;48610;52.144;8.624;2023-11-21T06:18:15;34.17;;;11.75;;
62554;SDS011;48610;52.144;8.624;2023-11-21T06:21:16;28.88;;;11.27;;
62554;SDS011;48610;52.144;8.624;2023-11-21T06:24:18;26.88;;;10.65;;
62554;SDS011;48610;52.144;8.624;2023-11-21T06:27:20;28.42;;;11.10;;
62554;SDS011;48610;52.144;8.624;2023-11-21T06:30:21;24.80;;;11.18;;
62554;SDS011;48610;52.144;8.624;2023-11-21T06:33:23;26.58;;;11.55;;
62554;SDS011;48610;52.144;8.624;2023-11-21T06:36:25;24.30;;;11.90;;
62554;SDS011;48610;52.144;8.624;2023-11-21T06:39:29;25.40;;;11.88;;
62554;SDS011;48610;52.144;8.624;2023-11-21T06:42:29;41.45;;;13.23;;
62554;SDS011;48610;52.144;8.624;2023-11-21T06:45:30;33.95;;;12.05;;
62554;SDS011;48610;52.144;8.624;2023-11-21T06:48:31;33.60;;;11.98;;
62554;SDS011;48610;52.144;8.624;2023-11-21T06:51:31;33.78;;;11.90;;
62554;SDS011;48610;52.144;8.624;2023-11-21T06:54:32;33.08;;;11.40;;
62554;SDS011;48610;52.144;8.624;2023-11-21T06:57:32;36.15;;;12.43;;
62554;SDS011;48610;52.144;8.624;2023-11-21T07:00:33;39.10;;;14.27;;
62554;SDS011;48610;52.144;8.624;2023-11-21T07:03:34;37.45;;;12.23;;
62554;SDS011;48610;52.144;8.624;2023-11-21T07:06:34;40.47;;;12.77;;
62554;SDS011;48610;52.144;8.624;2023-11-21T07:09:35;30.20;;;12.02;;
62554;SDS011;48610;52.144;8.624;2023-11-21T07:12:36;35.47;;;12.50;;
62554;SDS011;48610;52.144;8.624;2023-11-21T07:15:36;35.55;;;13.10;;
62554;SDS011;48610;52.144;8.624;2023-11-21T07:18:37;38.97;;;12.63;;
62554;SDS011;48610;52.144;8.624;2023-11-21T07:21:38;33.97;;;12.90;;
62554;SDS011;48610;52.144;8.624;2023-11-21T07:24:40;39.70;;;13.75;;
62554;SDS011;48610;52.144;8.624;2023-11-21T07:27:40;45.80;;;13.68;;
62554;SDS011;48610;52.144;8.624;2023-11-21T07:30:41;40.75;;;14.20;;
62554;SDS011;48610;52.144;8.624;2023-11-21T07:33:42;37.42;;;12.30;;
62554;SDS011;48610;52.144;8.624;2023-11-21T07:36:43;38.15;;;11.82;;
62554;SDS011;48610;52.144;8.624;2023-11-21T07:39:44;49.70;;;13.98;;
62554;SDS011;48610;52.144;8.624;2023-11-21T07:42:44;55.38;;;13.60;;
62554;SDS011;48610;52.144;8.624;2023-11-21T07:45:45;39.75;;;13.82;;
62554;SDS011;48610;52.144;8.624;2023-11-21T07:48:45;34.40;;;11.75;;
62554;SDS011;48610;52.144;8.624;2023-11-21T07:51:46;32.63;;;12.00;;
62554;SDS011;48610;52.144;8.624;2023-11-21T07:54:46;30.27;;;10.57;;
62554;SDS011;48610;52.144;8.624;2023-11-21T07:57:47;30.50;;;10.38;;
62554;SDS011;48610;52.144;8.624;2023-11-21T08:00:48;29.63;;;10.60;;
62554;SDS011;48610;52.144;8.624;2023-11-21T08:03:52;25.10;;;10.15;;
62554;SDS011;48610;52.144;8.624;2023-11-21T08:06:52;23.85;;;9.07;;
62554;SDS011;48610;52.144;8.624;2023-11-21T08:09:53;21.38;;;8.27;;
62554;SDS011;48610;52.144;8.624;2023-11-21T08:12:54;18.45;;;7.72;;
62554;SDS011;48610;52.144;8.624;2023-11-21T08:15:54;12.65;;;6.28;;
62554;SDS011;48610;52.144;8.624;2023-11-21T08:18:56;19.25;;;7.90;;
62554;SDS011;48610;52.144;8.624;2023-11-21T08:21:57;12.50;;;6.20;;
62554;SDS011;48610;52.144;8.624;2023-11-21T08:24:59;12.48;;;6.38;;
62554;SDS011;48610;52.144;8.624;2023-11-21T08:28:00;12.90;;;6.30;;
62554;SDS011;48610;52.144;8.624;2023-11-21T08:31:01;13.02;;;6.82;;
62554;SDS011;48610;52.144;8.624;2023-11-21T08:34:02;20.70;;;7.35;;
62554;SDS011;48610;52.144;8.624;2023-11-21T08:37:02;14.18;;;6.07;;
62554;SDS011;48610;52.144;8.624;2023-11-21T08:40:04;12.05;;;6.85;;
62554;SDS011;48610;52.144;8.624;2023-11-21T08:43:09;13.70;;;6.40;;
62554;SDS011;48610;52.144;8.624;2023-11-21T08:46:12;12.93;;;6.57;;
62554;SDS011;48610;52.144;8.624;2023-11-21T08:49:12;14.38;;;6.82;;
62554;SDS011;48610;52.144;8.624;2023-11-21T08:52:15;13.07;;;6.82;;
62554;SDS011;48610;52.144;8.624;2023-11-21T08:55:16;12.05;;;6.18;;
62554;SDS011;48610;52.144;8.624;2023-11-21T08:58:17;14.60;;;6.13;;
62554;SDS011;48610;52.144;8.624;2023-11-21T09:01:18;13.38;;;6.20;;
62554;SDS011;48610;52.144;8.624;2023-11-21T09:04:18;14.02;;;6.57;;
62554;SDS011;48610;52.144;8.624;2023-11-21T09:07:19;13.40;;;7.68;;
62554;SDS011;48610;52.144;8.624;2023-11-21T09:10:20;12.90;;;6.25;;
62554;SDS011;48610;52.144;8.624;2023-11-21T09:13:21;9.70;;;6.00;;
62554;SDS011;48610;52.144;8.624;2023-11-21T09:16:22;15.13;;;6.50;;
62554;SDS011;48610;52.144;8.624;2023-11-21T09:19:22;11.10;;;5.28;;
62554;SDS011;48610;52.144;8.624;2023-11-21T09:22:23;10.20;;;5.40;;
62554;SDS011;48610;52.144;8.624;2023-11-21T09:25:29;10.10;;;5.43;;
62554;SDS011;48610;52.144;8.624;2023-11-21T09:28:30;8.15;;;4.70;;
62554;SDS011;48610;52.144;8.624;2023-11-21T09:31:31;8.77;;;4.60;;
62554;SDS011;48610;52.144;8.624;2023-11-21T09:34:34;9.20;;;4.45;;
62554;SDS011;48610;52.144;8.624;2023-11-21T09:37:38;10.97;;;5.03;;
62554;SDS011;48610;52.144;8.624;2023-11-21T09:40:39;7.18;;;4.00;;
62554;SDS011;48610;52.144;8.624;2023-11-21T09:43:39;7.38;;;4.82;;
62554;SDS011;48610;52.144;8.624;2023-11-21T09:46:41;7.45;;;4.80;;
62554;SDS011;48610;52.144;8.624;2023-11-21T09:49:47;7.93;;;5.28;;
62554;SDS011;48610;52.144;8.624;2023-11-21T09:55:53;7.78;;;4.60;;
62554;SDS011;48610;52.144;8.624;2023-11-21T09:58:54;5.93;;;4.05;;
62554;SDS011;48610;52.144;8.624;2023-11-21T10:01:57;6.32;;;4.05;;
62554;SDS011;48610;52.144;8.624;2023-11-21T10:05:00;5.40;;;3.63;;
62554;SDS011;48610;52.144;8.624;2023-11-21T10:08:04;5.35;;;3.80;;
62554;SDS011;48610;52.144;8.624;2023-11-21T10:11:08;5.03;;;3.65;;
62554;SDS011;48610;52.144;8.624;2023-11-21T10:14:11;6.35;;;3.90;;
62554;SDS011;48610;52.144;8.624;2023-11-21T10:17:14;8.32;;;3.97;;
62554;SDS011;48610;52.144;8.624;2023-11-21T10:20:16;5.07;;;3.88;;
62554;SDS011;48610;52.144;8.624;2023-11-21T10:23:21;6.65;;;4.13;;
62554;SDS011;48610;52.144;8.624;2023-11-21T10:26:22;6.10;;;3.87;;
62554;SDS011;48610;52.144;8.624;2023-11-21T10:29:23;6.75;;;3.85;;
62554;SDS011;48610;52.144;8.624;2023-11-21T10:32:29;6.90;;;3.95;;
62554;SDS011;48610;52.144;8.624;2023-11-21T10:35:43;5.40;;;4.10;;
62554;SDS011;48610;52.144;8.624;2023-11-21T10:38:50;8.77;;;3.85;;
62554;SDS011;48610;52.144;8.624;2023-11-21T10:41:53;7.47;;;3.80;;
62554;SDS011;48610;52.144;8.624;2023-11-21T10:44:55;5.88;;;3.67;;
62554;SDS011;48610;52.144;8.624;2023-11-21T10:47:56;6.82;;;4.20;;
62554;SDS011;48610;52.144;8.624;2023-11-21T10:50:57;8.57;;;4.18;;
62554;SDS011;48610;52.144;8.624;2023-11-21T10:53:57;5.03;;;3.65;;
62554;SDS011;48610;52.144;8.624;2023-11-21T10:57:00;6.15;;;3.97;;
62554;SDS011;48610;52.144;8.624;2023-11-21T11:00:01;8.52;;;3.67;;
62554;SDS011;48610;52.144;8.624;2023-11-21T11:03:03;5.93;;;3.75;;
62554;SDS011;48610;52.144;8.624;2023-11-21T11:06:04;7.15;;;4.30;;
62554;SDS011;48610;52.144;8.624;2023-11-21T11:09:14;7.97;;;4.55;;
62554;SDS011;48610;52.144;8.624;2023-11-21T11:12:16;8.02;;;4.57;;
62554;SDS011;48610;52.144;8.624;2023-11-21T11:15:19;8.52;;;5.38;;
62554;SDS011;48610;52.144;8.624;2023-11-21T11:18:20;8.07;;;5.28;;
62554;SDS011;48610;52.144;8.624;2023-11-21T11:21:27;11.02;;;5.60;;
62554;SDS011;48610;52.144;8.624;2023-11-21T11:28:08;11.20;;;5.75;;
62554;SDS011;48610;52.144;8.624;2023-11-21T11:31:17;7.40;;;5.18;;
62554;SDS011;48610;52.144;8.624;2023-11-21T11:34:32;9.75;;;5.25;;
62554;SDS011;48610;52.144;8.624;2023-11-21T11:37:37;8.77;;;5.30;;
62554;SDS011;48610;52.144;8.624;2023-11-21T11:40:47;13.32;;;5.63;;
62554;SDS011;48610;52.144;8.624;2023-11-21T11:43:48;9.48;;;5.43;;
62554;SDS011;48610;52.144;8.624;2023-11-21T11:46:48;11.65;;;6.00;;
62554;SDS011;48610;52.144;8.624;2023-11-21T11:53:19;9.10;;;5.03;;
62554;SDS011;48610;52.144;8.624;2023-11-21T11:56:23;14.50;;;6.18;;
62554;SDS011;48610;52.144;8.624;2023-11-21T11:59:25;8.32;;;5.78;;
62554;SDS011;48610;52.144;8.624;2023-11-21T12:02:26;9.40;;;5.40;;
62554;SDS011;48610;52.144;8.624;2023-11-21T12:05:27;11.32;;;5.85;;
62554;SDS011;48610;52.144;8.624;2023-11-21T12:08:28;9.88;;;5.57;;
62554;SDS011;48610;52.144;8.624;2023-11-21T12:11:31;10.15;;;5.97;;
62554;SDS011;48610;52.144;8.624;2023-11-21T12:14:32;10.95;;;5.93;;
62554;SDS011;48610;52.144;8.624;2023-11-21T12:17:33;7.43;;;5.07;;
62554;SDS011;48610;52.144;8.624;2023-11-21T12:20:34;9.77;;;5.07;;
62554;SDS011;48610;52.144;8.624;2023-11-21T12:23:38;9.00;;;4.55;;
62554;SDS011;48610;52.144;8.624;2023-11-21T12:26:40;7.50;;;5.40;;
62554;SDS011;48610;52.144;8.624;2023-11-21T12:29:41;11.70;;;5.10;;
62554;SDS011;48610;52.144;8.624;2023-11-21T12:32:42;9.32;;;5.72;;
62554;SDS011;48610;52.144;8.624;2023-11-21T12:35:44;9.98;;;4.57;;
62554;SDS011;48610;52.144;8.624;2023-11-21T12:38:44;7.05;;;4.60;;
62554;SDS011;48610;52.144;8.624;2023-11-21T12:41:45;9.05;;;4.22;;
62554;SDS011;48610;52.144;8.624;2023-11-21T12:44:46;7.90;;;4.93;;
62554;SDS011;48610;52.144;8.624;2023-11-21T12:47:48;8.60;;;4.80;;
62554;SDS011;48610;52.144;8.624;2023-11-21T12:50:53;17.20;;;5.40;;
62554;SDS011;48610;52.144;8.624;2023-11-21T12:53:55;8.00;;;4.82;;
62554;SDS011;48610;52.144;8.624;2023-11-21T12:56:59;7.80;;;4.68;;
62554;SDS011;48610;52.144;8.624;2023-11-21T12:59:59;8.88;;;4.60;;
62554;SDS011;48610;52.144;8.624;2023-11-21T13:03:03;6.85;;;4.28;;
62554;SDS011;48610;52.144;8.624;2023-11-21T13:06:07;8.80;;;4.63;;
62554;SDS011;48610;52.144;8.624;2023-11-21T13:09:08;7.53;;;4.13;;
62554;SDS011;48610;52.144;8.624;2023-11-21T13:12:16;5.15;;;4.00;;
62554;SDS011;48610;52.144;8.624;2023-11-21T13:15:18;9.70;;;4.40;;
62554;SDS011;48610;52.144;8.624;2023-11-21T13:18:20;5.00;;;3.65;;
62554;SDS011;48610;52.144;8.624;2023-11-21T13:21:21;6.13;;;4.07;;
62554;SDS011;48610;52.144;8.624;2023-11-21T13:24:22;8.10;;;4.72;;
62554;SDS011;48610;52.144;8.624;2023-11-21T13:27:23;7.03;;;4.43;;
62554;SDS011;48610;52.144;8.624;2023-11-21T13:30:26;7.68;;;3.95;;
62554;SDS011;48610;52.144;8.624;2023-11-21T13:33:27;11.98;;;4.60;;
62554;SDS011;48610;52.144;8.624;2023-11-21T13:36:28;7.53;;;4.13;;
62554;SDS011;48610;52.144;8.624;2023-11-21T13:39:32;13.35;;;4.60;;
62554;SDS011;48610;52.144;8.624;2023-11-21T13:42:32;6.30;;;4.07;;
62554;SDS011;48610;52.144;8.624;2023-11-21T13:45:33;14.55;;;3.97;;
62554;SDS011;48610;52.144;8.624;2023-11-21T13:48:35;5.78;;;4.28;;
62554;SDS011;48610;52.144;8.624;2023-11-21T13:51:42;7.97;;;4.65;;
62554;SDS011;48610;52.144;8.624;2023-11-21T13:57:48;11.65;;;4.68;;
62554;SDS011;48610;52.144;8.624;2023-11-21T14:00:52;6.50;;;4.00;;
62554;SDS011;48610;52.144;8.624;2023-11-21T14:03:59;10.15;;;4.60;;
62554;SDS011;48610;52.144;8.624;2023-11-21T14:07:16;7.00;;;3.85;;
62554;SDS011;48610;52.144;8.624;2023-11-21T14:10:35;7.22;;;4.40;;
62554;SDS011;48610;52.144;8.624;2023-11-21T14:13:43;8.00;;;3.88;;
62554;SDS011;48610;52.144;8.624;2023-11-21T14:16:47;7.30;;;4.38;;
62554;SDS011;48610;52.144;8.624;2023-11-21T14:19:49;6.68;;;4.20;;
62554;SDS011;48610;52.144;8.624;2023-11-21T14:22:50;6.43;;;4.35;;
62554;SDS011;48610;52.144;8.624;2023-11-21T14:25:51;6.93;;;3.92;;
62554;SDS011;48610;52.144;8.624;2023-11-21T14:28:52;6.18;;;4.13;;
62554;SDS011;48610;52.144;8.624;2023-11-21T14:31:54;6.60;;;4.20;;
62554;SDS011;48610;52.144;8.624;2023-11-21T14:34:57;7.30;;;4.22;;
62554;SDS011;48610;52.144;8.624;2023-11-21T14:37:58;11.40;;;3.88;;
62554;SDS011;48610;52.144;8.624;2023-11-21T14:41:00;5.93;;;3.90;;
62554;SDS011;48610;52.144;8.624;2023-11-21T14:44:01;6.47;;;4.22;;
62554;SDS011;48610;52.144;8.624;2023-11-21T14:47:03;5.80;;;3.80;;
62554;SDS011;48610;52.144;8.624;2023-11-21T14:50:07;8.05;;;4.95;;
62554;SDS011;48610;52.144;8.624;2023-11-21T14:53:28;8.48;;;4.18;;
62554;SDS011;48610;52.144;8.624;2023-11-21T14:56:42;8.70;;;4.50;;
62554;SDS011;48610;52.144;8.624;2023-11-21T14:59:46;7.03;;;3.90;;
62554;SDS011;48610;52.144;8.624;2023-11-21T15:02:50;10.13;;;4.60;;
62554;SDS011;48610;52.144;8.624;2023-11-21T15:05:51;6.43;;;4.30;;
62554;SDS011;48610;52.144;8.624;2023-11-21T15:08:53;10.45;;;4.57;;
62554;SDS011;48610;52.144;8.624;2023-11-21T15:12:17;6.40;;;3.85;;
62554;SDS011;48610;52.144;8.624;2023-11-21T15:15:20;6.82;;;4.22;;
62554;SDS011;48610;52.144;8.624;2023-11-21T15:18:21;9.15;;;4.32;;
62554;SDS011;48610;52.144;8.624;2023-11-21T15:21:22;4.78;;;3.78;;
62554;SDS011;48610;52.144;8.624;2023-11-21T15:24:24;6.50;;;4.40;;
62554;SDS011;48610;52.144;8.624;2023-11-21T15:27:25;8.38;;;4.47;;
62554;SDS011;48610;52.144;8.624;2023-11-21T15:30:27;10.68;;;4.18;;
62554;SDS011;48610;52.144;8.624;2023-11-21T15:33:31;7.75;;;4.10;;
62554;SDS011;48610;52.144;8.624;2023-11-21T15:36:32;7.43;;;4.22;;
62554;SDS011;48610;52.144;8.624;2023-11-21T15:39:32;5.28;;;3.92;;
62554;SDS011;48610;52.144;8.624;2023-11-21T15:42:33;6.50;;;4.50;;
62554;SDS011;48610;52.144;8.624;2023-11-21T15:45:34;7.32;;;4.43;;
62554;SDS011;48610;52.144;8.624;2023-11-21T15:48:35;10.55;;;5.00;;
62554;SDS011;48610;52.144;8.624;2023-11-21T15:51:39;6.28;;;4.25;;
62554;SDS011;48610;52.144;8.624;2023-11-21T15:54:40;6.78;;;4.47;;
62554;SDS011;48610;52.144;8.624;2023-11-21T15:57:41;7.15;;;4.68;;
62554;SDS011;48610;52.144;8.624;2023-11-21T16:00:42;9.13;;;4.80;;
62554;SDS011;48610;52.144;8.624;2023-11-21T16:03:43;9.07;;;4.78;;
62554;SDS011;48610;52.144;8.624;2023-11-21T16:06:47;6.00;;;4.43;;
62554;SDS011;48610;52.144;8.624;2023-11-21T16:09:47;6.03;;;4.38;;
62554;SDS011;48610;52.144;8.624;2023-11-21T16:12:49;9.20;;;4.90;;
62554;SDS011;48610;52.144;8.624;2023-11-21T16:15:50;7.18;;;4.65;;
62554;SDS011;48610;52.144;8.624;2023-11-21T16:18:51;6.45;;;4.40;;
62554;SDS011;48610;52.144;8.624;2023-11-21T16:21:51;7.85;;;4.55;;
62554;SDS011;48610;52.144;8.624;2023-11-21T16:24:52;6.25;;;4.22;;
62554;SDS011;48610;52.144;8.624;2023-11-21T16:27:53;8.15;;;4.60;;
62554;SDS011;48610;52.144;8.624;2023-11-21T16:30:56;8.48;;;4.50;;
62554;SDS011;48610;52.144;8.624;2023-11-21T16:33:57;9.50;;;4.53;;
62554;SDS011;48610;52.144;8.624;2023-11-21T16:36:57;10.25;;;4.53;;
62554;SDS011;48610;52.144;8.624;2023-11-21T16:39:58;6.47;;;4.25;;
62554;SDS011;48610;52.144;8.624;2023-11-21T16:42:59;6.22;;;4.38;;
62554;SDS011;48610;52.144;8.624;2023-11-21T16:46:00;7.80;;;4.70;;
62554;SDS011;48610;52.144;8.624;2023-11-21T16:49:01;7.20;;;4.32;;
62554;SDS011;48610;52.144;8.624;2023-11-21T16:52:01;9.32;;;4.78;;
62554;SDS011;48610;52.144;8.624;2023-11-21T16:55:02;7.15;;;4.13;;
62554;SDS011;48610;52.144;8.624;2023-11-21T16:58:03;6.22;;;4.40;;
62554;SDS011;48610;52.144;8.624;2023-11-21T17:01:05;7.70;;;4.88;;
62554;SDS011;48610;52.144;8.624;2023-11-21T17:04:08;11.75;;;4.47;;
62554;SDS011;48610;52.144;8.624;2023-11-21T17:07:09;8.13;;;4.28;;
62554;SDS011;48610;52.144;8.624;2023-11-21T17:10:10;7.03;;;4.68;;
62554;SDS011;48610;52.144;8.624;2023-11-21T17:13:12;10.70;;;4.57;;
62554;SDS011;48610;52.144;8.624;2023-11-21T17:16:13;6.95;;;4.85;;
62554;SDS011;48610;52.144;8.624;2023-11-21T17:19:13;8.77;;;5.10;;
62554;SDS011;48610;52.144;8.624;2023-11-21T17:22:14;8.18;;;4.75;;
62554;SDS011;48610;52.144;8.624;2023-11-21T17:25:15;8.15;;;4.68;;
62554;SDS011;48610;52.144;8.624;2023-11-21T17:28:16;6.30;;;4.03;;
62554;SDS011;48610;52.144;8.624;2023-11-21T17:31:17;6.53;;;4.38;;
62554;SDS011;48610;52.144;8.624;2023-11-21T17:34:18;6.47;;;4.25;;
62554;SDS011;48610;52.144;8.624;2023-11-21T17:37:20;6.50;;;4.28;;
62554;SDS011;48610;52.144;8.624;2023-11-21T17:40:20;8.38;;;4.20;;
62554;SDS011;48610;52.144;8.624;2023-11-21T17:43:21;6.65;;;4.47;;
62554;SDS011;48610;52.144;8.624;2023-11-21T17:46:22;5.32;;;3.95;;
62554;SDS011;48610;52.144;8.624;2023-11-21T17:49:22;7.78;;;4.35;;
62554;SDS011;48610;52.144;8.624;2023-11-21T17:52:24;5.22;;;4.10;;
62554;SDS011;48610;52.144;8.624;2023-11-21T17:55:24;8.25;;;4.38;;
62554;SDS011;48610;52.144;8.624;2023-11-21T17:58:26;6.55;;;4.13;;
62554;SDS011;48610;52.144;8.624;2023-11-21T18:01:28;9.18;;;4.28;;
62554;SDS011;48610;52.144;8.624;2023-11-21T18:04:33;11.35;;;4.95;;
62554;SDS011;48610;52.144;8.624;2023-11-21T18:07:35;7.25;;;4.25;;
62554;SDS011;48610;52.144;8.624;2023-11-21T18:10:35;8.23;;;4.30;;
62554;SDS011;48610;52.144;8.624;2023-11-21T18:13:36;6.20;;;4.47;;
62554;SDS011;48610;52.144;8.624;2023-11-21T18:16:37;6.13;;;3.90;;